EFSIEFTP

Guest
Details From EFSI - Seinajoki
To EFTP - Tampere Pirkkala
Flight Number -
Tags generated
Created
Modified
Stats Distance 80 nm / 148 km
Max Altitude 4,100 ft / 1,250 m
Waypoints 3
Social Downloads 0
Likes 0
Share VATSIM

Download

Looking for another format? Having issues loading an existing format? Contact us
Advertisement - Login to hide

Notes

Basic altitude profile: - Ascent Rate: 2500ft/min - Ascent Speed: 250kts - Cruise Altitude: 35000ft - Cruise Speed: 420kts - Descent Rate: 1500ft/min - Descent Speed: 250kts Options: - Use NATs: yes - Use PACOTS: yes - Use low airways: yes - Use high airways: yes

Route

EFSI USEPU EFTP

ID Type Via Altitude Latitude Longitude Leg Dist Tot Dist Heading (true) Name
O EFSI APT - 0 ft / 0 m 62.69212˚ 22.83232˚ - 0 nm - Seinajoki
USEPU FIX - 4,100 ft / 1,250 m 61.72639˚ 23.43556˚ 60 nm 60 nm 163° / 164° -
O EFTP APT - 0 ft / 0 m 61.41415˚ 23.60440˚ 19 nm 79 nm 165° / 166° Tampere Pirkkala

Altitude Profile

Advertisement - Login to hide

EFSI

Details ICAO EFSI (SJY)
Name Seinajoki
Region Finland
Timezone Europe/Helsinki (UTC+2.0)
Stats Elevation 301 ft / 92 m (AMSL)
Location 62.692119° 22.832325°
Runways 1
Magnetic Variation 8.808° E

METAR

EFSI 162220Z AUTO 33006KT 6000 BKN003 M02/M03 Q1004

Decode

TAF

Not found

Departure Runways

ID Width Length Bearing (true) Bearing (mag) Surface Threshold Offset Overrun Length
14 98 ft / 30 m 5,048 ft / 1,539 m 136.22° 127.41° Asphalt 0 ft / 0 m 0 ft / 0 m
32 98 ft / 30 m 5,048 ft / 1,539 m 316.23° 307.42° Asphalt 0 ft / 0 m 0 ft / 0 m

EFTP

Details ICAO EFTP (TMP)
Name Tampere Pirkkala
Region Finland
Timezone Europe/Helsinki (UTC+2.0)
Stats Elevation 390 ft / 119 m (AMSL)
Location 61.414145° 23.604397°
Runways 1
Magnetic Variation 8.756° E

METAR

EFTP 162220Z AUTO 21002KT 9999 OVC006 00/M01 Q1003

Decode

TAF

TAF EFTP 162031Z 1621/1721 32002KT 8000 SCT003 BKN007 TEMPO 1621/1703 2000 BR BKN002 TEMPO 1703/1707 7000 SCT007 BKN020 BECMG 1707/1709 SCT015 TEMPO 1717/1721 BKN009

Decode

Destination Runways

ID Width Length Bearing (true) Bearing (mag) Surface Threshold Offset Overrun Length
06 148 ft / 45 m 8,831 ft / 2,692 m 64.40° 55.64° Asphalt 0 ft / 0 m 801 ft / 244 m
24 148 ft / 45 m 8,831 ft / 2,692 m 244.45° 235.69° Asphalt 0 ft / 0 m 640 ft / 195 m

Approach Navaids

Runway Type Ident Frequency Range Bearing (true) Bearing (mag) Slope Elevation
24 Localiser TP 109.70 MHz 18 nm / 33 km 244.40° 235.64° - 390 ft / 119 m (AMSL)
24 Glidescope TP 109.70 MHz 10 nm / 19 km 244.43° 235.67° 3.00° 390 ft / 119 m (AMSL)

Popular Alternatives